Panda — PBCS — position and weather

sailwx.info

Track history (hours):
 
Tides and Currents Weather Stations Pressure Air Temp Water Temp Dewpoint Dewpoint Depression Visibility Wind Speed Wind Dir Waves Ship Positions

Panda

Last reported at 2014-Jul-24 12:33 UTC. Time now 2014-Jul-24 23:07 UTC.
Position N 43°23' E 004°48'.

Length 89 m; draft 3 m.

Type: Cargo ship. MMSI: 245014000.

Date/timePositionNaut miles runAvg speedWind from/ knotsBaromVisibWave heightAir tempDewpointWater temp
2014-Jul-24 12:33N 43°23' E 004°48'3 2.6
2014-Jul-24 11:33N 43°23' E 004°52'1010.0
2014-Jul-24 10:33N 43°18' E 005°03'2411.3
2014-Jul-24 08:27N 43°05' E 005°31'1011.5
2014-Jul-24 07:34N 43°01' E 005°44'1111.1
2014-Jul-24 06:33N 42°58' E 005°59'1211.9
2014-Jul-24 05:34N 42°56' E 006°15'1111.2
2014-Jul-24 04:34N 42°58' E 006°30'1211.6
2014-Jul-24 03:31N 43°05' E 006°43'1111.4
2014-Jul-24 02:33N 43°12' E 006°55'1211.2
2014-Jul-24 01:31N 43°19' E 007°07'1111.3
2014-Jul-24 00:33N 43°26' E 007°19'2311.3
2014-Jul-23 22:31N 43°40' E 007°44'4711.2
2014-Jul-23 18:16N 44°09' E 008°37'810.6
2014-Jul-23 17:33N 44°13' E 008°45'1110.5
2014-Jul-23 16:31N 44°20' E 008°57'5 4.8
2014-Jul-23 15:32N 44°24' E 008°54'0 0.0
2014-Jul-23 14:29N 44°24' E 008°54'0 0.0
2014-Jul-23 13:32N 44°24' E 008°54'0 0.0
2014-Jul-23 12:32N 44°24' E 008°54'0 0.0
2014-Jul-23 11:32N 44°24' E 008°54'0 0.0
2014-Jul-23 10:32N 44°24' E 008°54'0 0.0
2014-Jul-23 07:32N 44°24' E 008°54'0 0.0
2014-Jul-23 06:32N 44°24' E 008°54'0 0.0
2014-Jul-23 05:26N 44°24' E 008°54'0 0.0
2014-Jul-23 04:32N 44°24' E 008°54'0 0.0
2014-Jul-23 03:32N 44°24' E 008°54'0 0.0
2014-Jul-23 02:26N 44°24' E 008°54'0 0.0
2014-Jul-23 01:26N 44°24' E 008°54'0 0.0
2014-Jul-23 00:32N 44°24' E 008°54'0 0.0
2014-Jul-22 23:29N 44°24' E 008°54'0 0.0
2014-Jul-22 22:32N 44°24' E 008°54'0 0.0
2014-Jul-22 21:32N 44°24' E 008°54'0 0.0
2014-Jul-22 20:26N 44°24' E 008°54'0 0.0
2014-Jul-22 19:32N 44°24' E 008°54'0 0.0
2014-Jul-22 18:31N 44°24' E 008°54'0 0.0
2014-Jul-22 17:31N 44°24' E 008°54'0 0.0
2014-Jul-22 16:31N 44°24' E 008°54'0 0.0
2014-Jul-22 14:25N 44°24' E 008°54'4 4.5
2014-Jul-22 13:33N 44°21' E 008°58'10 9.6
2014-Jul-22 12:33N 44°15' E 008°49'1010.3
2014-Jul-22 11:33N 44°08' E 008°37'71 9.5
2014-Jul-22 04:09N 43°25' E 007°20'6 9.8
2014-Jul-22 03:30N 43°21' E 007°13'9 9.8
2014-Jul-22 02:33N 43°16' E 007°02'10 9.8
2014-Jul-22 01:33N 43°10' E 006°52'10 9.6
2014-Jul-22 00:33N 43°04' E 006°41'10 9.6
2014-Jul-21 23:33N 42°59' E 006°31'9 8.5
2014-Jul-21 22:26N 42°55' E 006°19'7 8.3
2014-Jul-21 21:33N 42°52' E 006°10'9 8.3
2014-Jul-21 20:30N 42°48' E 005°59'2 8.5
2014-Jul-21 20:17N 42°48' E 005°57'6 8.3
2014-Jul-21 19:30N 42°45' E 005°48'45 8.9
2014-Jul-21 14:29N 42°28' E 004°53'9 8.3
2014-Jul-21 13:26N 42°24' E 004°42'36 9.1
2014-Jul-21 09:26N 42°10' E 003°56'18 8.8
2014-Jul-21 07:24N 42°03' E 003°34'10 9.1
2014-Jul-21 06:21N 41°59' E 003°22'8 8.7
2014-Jul-21 05:28N 41°53' E 003°17'910.0
2014-Jul-21 04:33N 41°45' E 003°12'1510.4
2014-Jul-21 03:07N 41°32' E 002°60'6 9.4
2014-Jul-21 02:29N 41°27' E 002°55'10 9.6
2014-Jul-21 01:26N 41°19' E 002°48'9 9.6
2014-Jul-21 00:28N 41°12' E 002°41'18 9.3
2014-Jul-20 22:29N 40°56' E 002°27'9 9.4
2014-Jul-20 21:33N 40°49' E 002°21'1010.1
2014-Jul-20 20:33N 40°41' E 002°13'1010.3
2014-Jul-20 19:33N 40°32' E 002°05'1310.3
2014-Jul-20 18:16N 40°21' E 001°56'710.2
2014-Jul-20 17:33N 40°15' E 001°50'1010.2
2014-Jul-20 16:33N 40°07' E 001°43'1010.0
2014-Jul-20 15:33N 39°59' E 001°35'1510.1
2014-Jul-20 14:06N 39°47' E 001°25'37 9.6
2014-Jul-20 10:17N 39°16' E 000°58'7 9.5
2014-Jul-20 09:33N 39°10' E 000°53'40 9.3
2014-Jul-20 05:12N 38°37' E 000°24'2910.0
2014-Jul-20 02:17N 38°13' E 000°03'3411.3
2014-Jul-19 23:14N 37°44' W 000°21'810.1
2014-Jul-19 22:29N 37°38' W 000°27'9 9.7
2014-Jul-19 21:30N 37°31' W 000°34'390 9.5
2014-Jul-18 04:15N 36°26' W 008°36'20 9.8
2014-Jul-18 02:15N 36°31' W 008°60'48 8.2
2014-Jul-17 20:22N 37°14' W 009°29'1010.4
2014-Jul-17 19:22N 37°23' W 009°25'2010.8
2014-Jul-17 17:33N 37°42' W 009°17'1010.4
2014-Jul-17 16:33N 37°52' W 009°13'1010.2
2014-Jul-17 15:33N 38°02' W 009°09'1010.2
2014-Jul-17 14:33N 38°12' W 009°07'10 9.8
2014-Jul-17 13:33N 38°20' W 009°01'10 9.5
2014-Jul-17 12:33N 38°29' W 008°56'3 0.2
2014-Jul-16 22:33N 38°31' W 008°53'0 0.0
2014-Jul-16 21:30N 38°31' W 008°53'0 0.0
2014-Jul-16 20:30N 38°31' W 008°53'0 0.0
2014-Jul-16 19:30N 38°31' W 008°53'0 0.0
2014-Jul-16 18:33N 38°31' W 008°53'0 0.0
2014-Jul-16 17:30N 38°31' W 008°53'0 0.0
2014-Jul-16 16:32N 38°31' W 008°53'0 0.0
2014-Jul-16 15:11N 38°31' W 008°53'0 0.0
2014-Jul-16 14:29N 38°31' W 008°53'0 0.0
2014-Jul-16 13:32N 38°31' W 008°53'0 0.0
2014-Jul-16 12:23N 38°31' W 008°53'0 0.0
2014-Jul-16 08:32N 38°31' W 008°53'0 0.0
2014-Jul-16 07:32N 38°31' W 008°53'0 0.0
2014-Jul-16 06:08N 38°31' W 008°53'0 0.0
2014-Jul-16 05:29N 38°31' W 008°53'0 0.0
2014-Jul-16 04:32N 38°31' W 008°53'0 0.0
2014-Jul-16 03:29N 38°31' W 008°53'0 0.0
2014-Jul-16 02:32N 38°31' W 008°53'0 0.0
2014-Jul-16 01:26N 38°31' W 008°53'0 0.0
2014-Jul-16 00:14N 38°31' W 008°53'0 0.0
2014-Jul-15 23:29N 38°31' W 008°53'1 0.8
2014-Jul-15 22:27N 38°31' W 008°54'0 0.0
2014-Jul-15 17:33N 38°31' W 008°54'0 0.0
2014-Jul-15 16:33N 38°31' W 008°54'0 0.0
2014-Jul-15 15:33N 38°31' W 008°54'0 0.0
2014-Jul-15 01:09N 38°31' W 008°54'  
Track history (hours):
 
Tides and Currents Weather Stations Pressure Air Temp Water Temp Dewpoint Dewpoint Depression Visibility Wind Speed Wind Dir Waves Ship Positions

Panda

Last reported at 2014-Jul-24 12:33 UTC. Time now 2014-Jul-24 23:07 UTC.
Position N 43°23' E 004°48'.

Length 89 m; draft 3 m.

Type: Cargo ship. MMSI: 245014000.

Date/timePositionNaut miles runAvg speedWind from/ knotsBaromVisibWave heightAir tempDewpointWater temp
2014-Jul-24 12:33N 43°23' E 004°48'3 2.6
2014-Jul-24 11:33N 43°23' E 004°52'1010.0
2014-Jul-24 10:33N 43°18' E 005°03'2411.3
2014-Jul-24 08:27N 43°05' E 005°31'1011.5
2014-Jul-24 07:34N 43°01' E 005°44'1111.1
2014-Jul-24 06:33N 42°58' E 005°59'1211.9
2014-Jul-24 05:34N 42°56' E 006°15'1111.2
2014-Jul-24 04:34N 42°58' E 006°30'1211.6
2014-Jul-24 03:31N 43°05' E 006°43'1111.4
2014-Jul-24 02:33N 43°12' E 006°55'1211.2
2014-Jul-24 01:31N 43°19' E 007°07'1111.3
2014-Jul-24 00:33N 43°26' E 007°19'2311.3
2014-Jul-23 22:31N 43°40' E 007°44'4711.2
2014-Jul-23 18:16N 44°09' E 008°37'810.6
2014-Jul-23 17:33N 44°13' E 008°45'1110.5
2014-Jul-23 16:31N 44°20' E 008°57'5 4.8
2014-Jul-23 15:32N 44°24' E 008°54'0 0.0
2014-Jul-23 14:29N 44°24' E 008°54'0 0.0
2014-Jul-23 13:32N 44°24' E 008°54'0 0.0
2014-Jul-23 12:32N 44°24' E 008°54'0 0.0
2014-Jul-23 11:32N 44°24' E 008°54'0 0.0
2014-Jul-23 10:32N 44°24' E 008°54'0 0.0
2014-Jul-23 07:32N 44°24' E 008°54'0 0.0
2014-Jul-23 06:32N 44°24' E 008°54'0 0.0
2014-Jul-23 05:26N 44°24' E 008°54'0 0.0
2014-Jul-23 04:32N 44°24' E 008°54'0 0.0
2014-Jul-23 03:32N 44°24' E 008°54'0 0.0
2014-Jul-23 02:26N 44°24' E 008°54'0 0.0
2014-Jul-23 01:26N 44°24' E 008°54'0 0.0
2014-Jul-23 00:32N 44°24' E 008°54'0 0.0
2014-Jul-22 23:29N 44°24' E 008°54'0 0.0
2014-Jul-22 22:32N 44°24' E 008°54'0 0.0
2014-Jul-22 21:32N 44°24' E 008°54'0 0.0
2014-Jul-22 20:26N 44°24' E 008°54'0 0.0
2014-Jul-22 19:32N 44°24' E 008°54'0 0.0
2014-Jul-22 18:31N 44°24' E 008°54'0 0.0
2014-Jul-22 17:31N 44°24' E 008°54'0 0.0
2014-Jul-22 16:31N 44°24' E 008°54'0 0.0
2014-Jul-22 14:25N 44°24' E 008°54'4 4.5
2014-Jul-22 13:33N 44°21' E 008°58'10 9.6
2014-Jul-22 12:33N 44°15' E 008°49'1010.3
2014-Jul-22 11:33N 44°08' E 008°37'71 9.5
2014-Jul-22 04:09N 43°25' E 007°20'6 9.8
2014-Jul-22 03:30N 43°21' E 007°13'9 9.8
2014-Jul-22 02:33N 43°16' E 007°02'10 9.8
2014-Jul-22 01:33N 43°10' E 006°52'10 9.6
2014-Jul-22 00:33N 43°04' E 006°41'10 9.6
2014-Jul-21 23:33N 42°59' E 006°31'9 8.5
2014-Jul-21 22:26N 42°55' E 006°19'7 8.3
2014-Jul-21 21:33N 42°52' E 006°10'9 8.3
2014-Jul-21 20:30N 42°48' E 005°59'2 8.5
2014-Jul-21 20:17N 42°48' E 005°57'6 8.3
2014-Jul-21 19:30N 42°45' E 005°48'45 8.9
2014-Jul-21 14:29N 42°28' E 004°53'9 8.3
2014-Jul-21 13:26N 42°24' E 004°42'36 9.1
2014-Jul-21 09:26N 42°10' E 003°56'18 8.8
2014-Jul-21 07:24N 42°03' E 003°34'10 9.1
2014-Jul-21 06:21N 41°59' E 003°22'8 8.7
2014-Jul-21 05:28N 41°53' E 003°17'910.0
2014-Jul-21 04:33N 41°45' E 003°12'1510.4
2014-Jul-21 03:07N 41°32' E 002°60'6 9.4
2014-Jul-21 02:29N 41°27' E 002°55'10 9.6
2014-Jul-21 01:26N 41°19' E 002°48'9 9.6
2014-Jul-21 00:28N 41°12' E 002°41'18 9.3
2014-Jul-20 22:29N 40°56' E 002°27'9 9.4
2014-Jul-20 21:33N 40°49' E 002°21'1010.1
2014-Jul-20 20:33N 40°41' E 002°13'1010.3
2014-Jul-20 19:33N 40°32' E 002°05'1310.3
2014-Jul-20 18:16N 40°21' E 001°56'710.2
2014-Jul-20 17:33N 40°15' E 001°50'1010.2
2014-Jul-20 16:33N 40°07' E 001°43'1010.0
2014-Jul-20 15:33N 39°59' E 001°35'1510.1
2014-Jul-20 14:06N 39°47' E 001°25'37 9.6
2014-Jul-20 10:17N 39°16' E 000°58'7 9.5
2014-Jul-20 09:33N 39°10' E 000°53'40 9.3
2014-Jul-20 05:12N 38°37' E 000°24'2910.0
2014-Jul-20 02:17N 38°13' E 000°03'3411.3
2014-Jul-19 23:14N 37°44' W 000°21'810.1
2014-Jul-19 22:29N 37°38' W 000°27'9 9.7
2014-Jul-19 21:30N 37°31' W 000°34'390 9.5
2014-Jul-18 04:15N 36°26' W 008°36'20 9.8
2014-Jul-18 02:15N 36°31' W 008°60'48 8.2
2014-Jul-17 20:22N 37°14' W 009°29'1010.4
2014-Jul-17 19:22N 37°23' W 009°25'2010.8
2014-Jul-17 17:33N 37°42' W 009°17'1010.4
2014-Jul-17 16:33N 37°52' W 009°13'1010.2
2014-Jul-17 15:33N 38°02' W 009°09'1010.2
2014-Jul-17 14:33N 38°12' W 009°07'10 9.8
2014-Jul-17 13:33N 38°20' W 009°01'10 9.5
2014-Jul-17 12:33N 38°29' W 008°56'3 0.2
2014-Jul-16 22:33N 38°31' W 008°53'0 0.0
2014-Jul-16 21:30N 38°31' W 008°53'0 0.0
2014-Jul-16 20:30N 38°31' W 008°53'0 0.0
2014-Jul-16 19:30N 38°31' W 008°53'0 0.0
2014-Jul-16 18:33N 38°31' W 008°53'0 0.0
2014-Jul-16 17:30N 38°31' W 008°53'0 0.0
2014-Jul-16 16:32N 38°31' W 008°53'0 0.0
2014-Jul-16 15:11N 38°31' W 008°53'0 0.0
2014-Jul-16 14:29N 38°31' W 008°53'0 0.0
2014-Jul-16 13:32N 38°31' W 008°53'0 0.0
2014-Jul-16 12:23N 38°31' W 008°53'0 0.0
2014-Jul-16 08:32N 38°31' W 008°53'0 0.0
2014-Jul-16 07:32N 38°31' W 008°53'0 0.0
2014-Jul-16 06:08N 38°31' W 008°53'0 0.0
2014-Jul-16 05:29N 38°31' W 008°53'0 0.0
2014-Jul-16 04:32N 38°31' W 008°53'0 0.0
2014-Jul-16 03:29N 38°31' W 008°53'0 0.0
2014-Jul-16 02:32N 38°31' W 008°53'0 0.0
2014-Jul-16 01:26N 38°31' W 008°53'0 0.0
2014-Jul-16 00:14N 38°31' W 008°53'0 0.0
2014-Jul-15 23:29N 38°31' W 008°53'1 0.8
2014-Jul-15 22:27N 38°31' W 008°54'0 0.0
2014-Jul-15 17:33N 38°31' W 008°54'0 0.0
2014-Jul-15 16:33N 38°31' W 008°54'0 0.0
2014-Jul-15 15:33N 38°31' W 008°54'0 0.0
2014-Jul-15 01:09N 38°31' W 008°54'  

Dump ship's entire track history